sensor_id;sensor_type;location;lat;lon;timestamp;pressure;altitude;pressure_sealevel;temperature;humidity
9139;BME280;4604;48.616;9.548;2023-04-08T00:00:49;97106.59;;;7.59;100.00
9139;BME280;4604;48.616;9.548;2023-04-08T00:03:16;97108.72;;;7.65;100.00
9139;BME280;4604;48.616;9.548;2023-04-08T00:05:43;97103.63;;;7.64;100.00
9139;BME280;4604;48.616;9.548;2023-04-08T00:08:11;97109.69;;;7.64;100.00
9139;BME280;4604;48.616;9.548;2023-04-08T00:10:37;97104.19;;;7.56;100.00
9139;BME280;4604;48.616;9.548;2023-04-08T00:13:04;97110.88;;;7.60;100.00
9139;BME280;4604;48.616;9.548;2023-04-08T00:15:31;97107.66;;;7.68;100.00
9139;BME280;4604;48.616;9.548;2023-04-08T00:17:57;97110.28;;;7.57;100.00
9139;BME280;4604;48.616;9.548;2023-04-08T00:20:24;97113.16;;;7.54;100.00
9139;BME280;4604;48.616;9.548;2023-04-08T00:22:50;97110.16;;;7.58;100.00
9139;BME280;4604;48.616;9.548;2023-04-08T00:25:18;97118.75;;;7.60;100.00
9139;BME280;4604;48.616;9.548;2023-04-08T00:27:45;97117.34;;;7.56;100.00
9139;BME280;4604;48.616;9.548;2023-04-08T00:30:12;97109.06;;;7.49;100.00
9139;BME280;4604;48.616;9.548;2023-04-08T00:32:40;97108.34;;;7.47;100.00
9139;BME280;4604;48.616;9.548;2023-04-08T00:35:07;97111.47;;;7.53;100.00
9139;BME280;4604;48.616;9.548;2023-04-08T00:37:33;97114.44;;;7.48;100.00
9139;BME280;4604;48.616;9.548;2023-04-08T00:40:00;97109.81;;;7.52;100.00
9139;BME280;4604;48.616;9.548;2023-04-08T00:42:29;97114.31;;;7.49;100.00
9139;BME280;4604;48.616;9.548;2023-04-08T00:44:56;97108.09;;;7.50;100.00
9139;BME280;4604;48.616;9.548;2023-04-08T00:47:23;97117.78;;;7.50;100.00
9139;BME280;4604;48.616;9.548;2023-04-08T00:49:50;97115.72;;;7.42;100.00
9139;BME280;4604;48.616;9.548;2023-04-08T00:52:17;97116.13;;;7.49;100.00
9139;BME280;4604;48.616;9.548;2023-04-08T00:54:44;97120.88;;;7.44;100.00
9139;BME280;4604;48.616;9.548;2023-04-08T00:57:10;97125.28;;;7.43;100.00
9139;BME280;4604;48.616;9.548;2023-04-08T00:59:39;97128.38;;;7.37;100.00
9139;BME280;4604;48.616;9.548;2023-04-08T01:02:13;97126.91;;;7.33;100.00
9139;BME280;4604;48.616;9.548;2023-04-08T01:04:51;97121.56;;;7.35;100.00
9139;BME280;4604;48.616;9.548;2023-04-08T01:07:21;97130.38;;;7.34;100.00
9139;BME280;4604;48.616;9.548;2023-04-08T01:09:52;97130.16;;;7.37;100.00
9139;BME280;4604;48.616;9.548;2023-04-08T01:12:24;97130.16;;;7.37;100.00
9139;BME280;4604;48.616;9.548;2023-04-08T01:14:55;97132.44;;;7.41;100.00
9139;BME280;4604;48.616;9.548;2023-04-08T01:17:22;97126.22;;;7.42;100.00
9139;BME280;4604;48.616;9.548;2023-04-08T01:19:50;97128.97;;;7.41;100.00
9139;BME280;4604;48.616;9.548;2023-04-08T01:22:22;97126.00;;;7.45;100.00
9139;BME280;4604;48.616;9.548;2023-04-08T01:24:58;97125.16;;;7.45;100.00
9139;BME280;4604;48.616;9.548;2023-04-08T01:27:30;97127.78;;;7.45;100.00
9139;BME280;4604;48.616;9.548;2023-04-08T01:29:58;97131.97;;;7.47;100.00
9139;BME280;4604;48.616;9.548;2023-04-08T01:32:27;97131.63;;;7.52;100.00
9139;BME280;4604;48.616;9.548;2023-04-08T01:34:55;97130.91;;;7.50;100.00
9139;BME280;4604;48.616;9.548;2023-04-08T01:37:24;97124.47;;;7.54;100.00
9139;BME280;4604;48.616;9.548;2023-04-08T01:39:53;97128.66;;;7.57;100.00
9139;BME280;4604;48.616;9.548;2023-04-08T01:42:21;97127.50;;;7.61;100.00
9139;BME280;4604;48.616;9.548;2023-04-08T01:44:51;97122.44;;;7.58;100.00
9139;BME280;4604;48.616;9.548;2023-04-08T01:47:21;97122.44;;;7.58;100.00
9139;BME280;4604;48.616;9.548;2023-04-08T01:49:49;97125.47;;;7.64;100.00
9139;BME280;4604;48.616;9.548;2023-04-08T01:52:17;97122.94;;;7.63;100.00
9139;BME280;4604;48.616;9.548;2023-04-08T01:54:44;97126.53;;;7.62;100.00
9139;BME280;4604;48.616;9.548;2023-04-08T01:57:14;97122.94;;;7.52;100.00
9139;BME280;4604;48.616;9.548;2023-04-08T01:59:47;97120.50;;;7.48;100.00
9139;BME280;4604;48.616;9.548;2023-04-08T02:02:19;97121.56;;;7.46;100.00
9139;BME280;4604;48.616;9.548;2023-04-08T02:04:46;97119.47;;;7.51;100.00
9139;BME280;4604;48.616;9.548;2023-04-08T02:07:13;97123.75;;;7.52;100.00
9139;BME280;4604;48.616;9.548;2023-04-08T02:09:40;97124.16;;;7.59;100.00
9139;BME280;4604;48.616;9.548;2023-04-08T02:12:07;97121.13;;;7.52;100.00
9139;BME280;4604;48.616;9.548;2023-04-08T02:14:33;97126.38;;;7.52;100.00
9139;BME280;4604;48.616;9.548;2023-04-08T02:17:04;97124.00;;;7.49;100.00
9139;BME280;4604;48.616;9.548;2023-04-08T02:19:35;97120.50;;;7.48;100.00
9139;BME280;4604;48.616;9.548;2023-04-08T02:22:09;97125.75;;;7.48;100.00
9139;BME280;4604;48.616;9.548;2023-04-08T02:24:37;97124.44;;;7.43;100.00
9139;BME280;4604;48.616;9.548;2023-04-08T02:27:07;97119.19;;;7.43;100.00
9139;BME280;4604;48.616;9.548;2023-04-08T02:29:35;97131.56;;;7.29;100.00
9139;BME280;4604;48.616;9.548;2023-04-08T02:32:04;97128.81;;;7.31;100.00
9139;BME280;4604;48.616;9.548;2023-04-08T02:34:35;97135.03;;;7.30;100.00
9139;BME280;4604;48.616;9.548;2023-04-08T02:37:02;97130.72;;;7.29;100.00
9139;BME280;4604;48.616;9.548;2023-04-08T02:39:31;97135.78;;;7.43;100.00
9139;BME280;4604;48.616;9.548;2023-04-08T02:41:58;97137.81;;;7.40;100.00
9139;BME280;4604;48.616;9.548;2023-04-08T02:44:24;97134.84;;;7.44;100.00
9139;BME280;4604;48.616;9.548;2023-04-08T02:46:51;97136.63;;;7.44;100.00
9139;BME280;4604;48.616;9.548;2023-04-08T02:49:18;97131.34;;;7.33;100.00
9139;BME280;4604;48.616;9.548;2023-04-08T02:51:45;97141.94;;;7.31;100.00
9139;BME280;4604;48.616;9.548;2023-04-08T02:54:12;97141.22;;;7.29;100.00
9139;BME280;4604;48.616;9.548;2023-04-08T02:56:39;97138.38;;;7.32;100.00
9139;BME280;4604;48.616;9.548;2023-04-08T02:59:05;97135.13;;;7.28;100.00
9139;BME280;4604;48.616;9.548;2023-04-08T03:01:32;97136.69;;;7.31;100.00
9139;BME280;4604;48.616;9.548;2023-04-08T03:03:58;97139.31;;;7.31;100.00
9139;BME280;4604;48.616;9.548;2023-04-08T03:06:28;97135.03;;;7.30;100.00
9139;BME280;4604;48.616;9.548;2023-04-08T03:08:57;97139.53;;;7.28;100.00
9139;BME280;4604;48.616;9.548;2023-04-08T03:11:23;97133.34;;;7.29;100.00
9139;BME280;4604;48.616;9.548;2023-04-08T03:13:50;97133.56;;;7.26;100.00
9139;BME280;4604;48.616;9.548;2023-04-08T03:16:17;97134.78;;;7.33;100.00
9139;BME280;4604;48.616;9.548;2023-04-08T03:18:43;97132.13;;;7.22;100.00
9139;BME280;4604;48.616;9.548;2023-04-08T03:21:10;97138.00;;;7.25;100.00
9139;BME280;4604;48.616;9.548;2023-04-08T03:23:36;97136.44;;;7.23;100.00
9139;BME280;4604;48.616;9.548;2023-04-08T03:26:04;97141.34;;;7.27;100.00
9139;BME280;4604;48.616;9.548;2023-04-08T03:28:31;97132.25;;;7.20;100.00
9139;BME280;4604;48.616;9.548;2023-04-08T03:30:57;97136.91;;;7.28;100.00
9139;BME280;4604;48.616;9.548;2023-04-08T03:33:26;97138.78;;;7.15;100.00
9139;BME280;4604;48.616;9.548;2023-04-08T03:35:54;97143.34;;;7.24;100.00
9139;BME280;4604;48.616;9.548;2023-04-08T03:38:21;97142.66;;;7.22;100.00
9139;BME280;4604;48.616;9.548;2023-04-08T03:40:47;97151.22;;;7.24;100.00
9139;BME280;4604;48.616;9.548;2023-04-08T03:43:15;97148.44;;;7.14;100.00
9139;BME280;4604;48.616;9.548;2023-04-08T03:45:43;97140.78;;;7.11;100.00
9139;BME280;4604;48.616;9.548;2023-04-08T03:48:10;97142.47;;;7.12;100.00
9139;BME280;4604;48.616;9.548;2023-04-08T03:50:37;97141.63;;;7.12;100.00
9139;BME280;4604;48.616;9.548;2023-04-08T03:53:03;97139.00;;;7.12;100.00
9139;BME280;4604;48.616;9.548;2023-04-08T03:55:30;97138.41;;;7.08;100.00
9139;BME280;4604;48.616;9.548;2023-04-08T03:57:57;97141.63;;;7.12;100.00
9139;BME280;4604;48.616;9.548;2023-04-08T04:00:25;97134.47;;;7.14;100.00
9139;BME280;4604;48.616;9.548;2023-04-08T04:02:51;97131.63;;;7.17;100.00
9139;BME280;4604;48.616;9.548;2023-04-08T04:05:19;97135.03;;;7.06;100.00
9139;BME280;4604;48.616;9.548;2023-04-08T04:07:46;97133.16;;;7.08;100.00
9139;BME280;4604;48.616;9.548;2023-04-08T04:10:13;97133.88;;;7.10;100.00
9139;BME280;4604;48.616;9.548;2023-04-08T04:12:40;97138.66;;;7.16;100.00
9139;BME280;4604;48.616;9.548;2023-04-08T04:15:07;97136.16;;;7.15;100.00
9139;BME280;4604;48.616;9.548;2023-04-08T04:17:35;97135.66;;;7.10;100.00
9139;BME280;4604;48.616;9.548;2023-04-08T04:20:03;97139.22;;;7.08;100.00
9139;BME280;4604;48.616;9.548;2023-04-08T04:22:30;97140.63;;;7.01;100.00
9139;BME280;4604;48.616;9.548;2023-04-08T04:24:56;97138.00;;;7.01;100.00
9139;BME280;4604;48.616;9.548;2023-04-08T04:27:23;97145.13;;;6.99;100.00
9139;BME280;4604;48.616;9.548;2023-04-08T04:29:49;97148.41;;;7.03;100.00
9139;BME280;4604;48.616;9.548;2023-04-08T04:32:16;97145.63;;;7.04;100.00
9139;BME280;4604;48.616;9.548;2023-04-08T04:34:45;97149.00;;;7.06;100.00
9139;BME280;4604;48.616;9.548;2023-04-08T04:37:11;97154.03;;;7.10;100.00
9139;BME280;4604;48.616;9.548;2023-04-08T04:39:38;97155.31;;;7.04;100.00
9139;BME280;4604;48.616;9.548;2023-04-08T04:42:05;97157.69;;;7.07;100.00
9139;BME280;4604;48.616;9.548;2023-04-08T04:44:31;97152.91;;;7.01;100.00
9139;BME280;4604;48.616;9.548;2023-04-08T04:46:58;97140.44;;;6.92;100.00
9139;BME280;4604;48.616;9.548;2023-04-08T04:49:25;97145.69;;;6.92;100.00
9139;BME280;4604;48.616;9.548;2023-04-08T04:51:53;97156.09;;;6.93;100.00
9139;BME280;4604;48.616;9.548;2023-04-08T04:54:19;97158.72;;;6.93;100.00
9139;BME280;4604;48.616;9.548;2023-04-08T04:56:46;97162.78;;;6.97;100.00
9139;BME280;4604;48.616;9.548;2023-04-08T04:59:13;97172.00;;;7.03;100.00
9139;BME280;4604;48.616;9.548;2023-04-08T05:01:39;97163.69;;;7.09;100.00
9139;BME280;4604;48.616;9.548;2023-04-08T05:04:06;97165.25;;;7.12;100.00
9139;BME280;4604;48.616;9.548;2023-04-08T05:06:33;97168.50;;;7.15;100.00
9139;BME280;4604;48.616;9.548;2023-04-08T05:09:01;97167.19;;;7.21;100.00
9139;BME280;4604;48.616;9.548;2023-04-08T05:11:27;97167.53;;;7.16;100.00
9139;BME280;4604;48.616;9.548;2023-04-08T05:13:54;97172.69;;;7.18;100.00
9139;BME280;4604;48.616;9.548;2023-04-08T05:16:20;97168.50;;;7.15;100.00
9139;BME280;4604;48.616;9.548;2023-04-08T05:18:47;97168.25;;;7.18;100.00
9139;BME280;4604;48.616;9.548;2023-04-08T05:21:14;97186.13;;;7.13;100.00
9139;BME280;4604;48.616;9.548;2023-04-08T05:23:40;97179.59;;;7.19;100.00
9139;BME280;4604;48.616;9.548;2023-04-08T05:26:09;97181.13;;;7.10;100.00
9139;BME280;4604;48.616;9.548;2023-04-08T05:28:35;97187.78;;;7.14;100.00
9139;BME280;4604;48.616;9.548;2023-04-08T05:31:02;97183.41;;;7.15;100.00
9139;BME280;4604;48.616;9.548;2023-04-08T05:33:28;97187.78;;;7.14;100.00
9139;BME280;4604;48.616;9.548;2023-04-08T05:35:55;97186.72;;;7.17;100.00
9139;BME280;4604;48.616;9.548;2023-04-08T05:38:22;97195.16;;;7.09;100.00
9139;BME280;4604;48.616;9.548;2023-04-08T05:40:48;97195.47;;;7.17;100.00
9139;BME280;4604;48.616;9.548;2023-04-08T05:43:17;97198.75;;;7.08;100.00
9139;BME280;4604;48.616;9.548;2023-04-08T05:45:43;97196.56;;;7.02;100.00
9139;BME280;4604;48.616;9.548;2023-04-08T05:48:10;97194.16;;;6.99;100.00
9139;BME280;4604;48.616;9.548;2023-04-08T05:50:37;97195.22;;;6.96;100.00
9139;BME280;4604;48.616;9.548;2023-04-08T05:53:03;97194.91;;;7.01;100.00
9139;BME280;4604;48.616;9.548;2023-04-08T05:55:30;97199.19;;;7.02;100.00
9139;BME280;4604;48.616;9.548;2023-04-08T05:57:58;97204.34;;;7.03;100.00
9139;BME280;4604;48.616;9.548;2023-04-08T06:00:26;97201.81;;;7.02;100.00
9139;BME280;4604;48.616;9.548;2023-04-08T06:02:53;97200.03;;;7.02;100.00
9139;BME280;4604;48.616;9.548;2023-04-08T06:05:20;97208.63;;;7.04;100.00
9139;BME280;4604;48.616;9.548;2023-04-08T06:07:46;97212.53;;;6.99;100.00
9139;BME280;4604;48.616;9.548;2023-04-08T06:10:13;97212.53;;;6.99;100.00
9139;BME280;4604;48.616;9.548;2023-04-08T06:12:40;97209.91;;;6.99;100.00
9139;BME280;4604;48.616;9.548;2023-04-08T06:15:07;97208.63;;;7.04;100.00
9139;BME280;4604;48.616;9.548;2023-04-08T06:17:36;97227.63;;;7.08;100.00
9139;BME280;4604;48.616;9.548;2023-04-08T06:20:05;97225.44;;;7.02;100.00
9139;BME280;4604;48.616;9.548;2023-04-08T06:22:33;97221.56;;;6.95;100.00
9139;BME280;4604;48.616;9.548;2023-04-08T06:25:00;97225.97;;;6.94;100.00
9139;BME280;4604;48.616;9.548;2023-04-08T06:27:27;97225.97;;;6.94;100.00
9139;BME280;4604;48.616;9.548;2023-04-08T06:29:53;97223.75;;;7.01;100.00
9139;BME280;4604;48.616;9.548;2023-04-08T06:32:20;97229.63;;;7.04;100.00
9139;BME280;4604;48.616;9.548;2023-04-08T06:34:48;97228.19;;;6.88;100.00
9139;BME280;4604;48.616;9.548;2023-04-08T06:37:15;97238.47;;;6.91;100.00
9139;BME280;4604;48.616;9.548;2023-04-08T06:39:41;97239.22;;;6.80;100.00
9139;BME280;4604;48.616;9.548;2023-04-08T06:42:08;97242.16;;;6.75;100.00
9139;BME280;4604;48.616;9.548;2023-04-08T06:44:35;97240.59;;;6.85;100.00
9139;BME280;4604;48.616;9.548;2023-04-08T06:47:01;97241.34;;;6.75;100.00
9139;BME280;4604;48.616;9.548;2023-04-08T06:49:31;97243.22;;;6.85;100.00
9139;BME280;4604;48.616;9.548;2023-04-08T06:52:00;97254.56;;;6.86;100.00
9139;BME280;4604;48.616;9.548;2023-04-08T06:54:27;97247.50;;;6.86;100.00
9139;BME280;4604;48.616;9.548;2023-04-08T06:56:57;97247.47;;;6.99;100.00
9139;BME280;4604;48.616;9.548;2023-04-08T06:59:23;97249.72;;;6.93;100.00
9139;BME280;4604;48.616;9.548;2023-04-08T07:01:50;97249.53;;;7.20;100.00
9139;BME280;4604;48.616;9.548;2023-04-08T07:04:16;97254.03;;;7.18;100.00
9139;BME280;4604;48.616;9.548;2023-04-08T07:06:43;97244.44;;;7.05;100.00
9139;BME280;4604;48.616;9.548;2023-04-08T07:09:11;97248.81;;;7.18;100.00
9139;BME280;4604;48.616;9.548;2023-04-08T07:11:38;97249.69;;;7.05;100.00
9139;BME280;4604;48.616;9.548;2023-04-08T07:14:04;97246.41;;;7.15;100.00
9139;BME280;4604;48.616;9.548;2023-04-08T07:16:31;97256.38;;;7.34;100.00
9139;BME280;4604;48.616;9.548;2023-04-08T07:18:57;97257.94;;;7.36;100.00
9139;BME280;4604;48.616;9.548;2023-04-08T07:21:24;97251.94;;;7.23;100.00
9139;BME280;4604;48.616;9.548;2023-04-08T07:23:51;97256.13;;;7.25;100.00
9139;BME280;4604;48.616;9.548;2023-04-08T07:26:19;97259.34;;;7.29;100.00
9139;BME280;4604;48.616;9.548;2023-04-08T07:28:46;97269.94;;;7.40;100.00
9139;BME280;4604;48.616;9.548;2023-04-08T07:31:14;97268.03;;;7.42;100.00
9139;BME280;4604;48.616;9.548;2023-04-08T07:33:41;97272.13;;;7.46;100.00
9139;BME280;4604;48.616;9.548;2023-04-08T07:36:08;97274.63;;;7.48;100.00
9139;BME280;4604;48.616;9.548;2023-04-08T07:38:37;97277.03;;;7.51;100.00
9139;BME280;4604;48.616;9.548;2023-04-08T07:41:05;97279.94;;;7.59;100.00
9139;BME280;4604;48.616;9.548;2023-04-08T07:43:33;97276.47;;;7.83;100.00
9139;BME280;4604;48.616;9.548;2023-04-08T07:46:01;97269.19;;;7.62;100.00
9139;BME280;4604;48.616;9.548;2023-04-08T07:48:29;97275.44;;;7.72;100.00
9139;BME280;4604;48.616;9.548;2023-04-08T07:50:55;97265.56;;;7.76;100.00
9139;BME280;4604;48.616;9.548;2023-04-08T07:53:23;97279.19;;;7.81;100.00
9139;BME280;4604;48.616;9.548;2023-04-08T07:55:50;97272.88;;;7.84;100.00
9139;BME280;4604;48.616;9.548;2023-04-08T07:58:17;97274.44;;;7.86;100.00
9139;BME280;4604;48.616;9.548;2023-04-08T08:00:45;97274.28;;;7.77;100.00
9139;BME280;4604;48.616;9.548;2023-04-08T08:03:12;97273.94;;;7.57;100.00
9139;BME280;4604;48.616;9.548;2023-04-08T08:05:38;97277.00;;;7.75;100.00
9139;BME280;4604;48.616;9.548;2023-04-08T08:08:05;97281.75;;;7.70;100.00
9139;BME280;4604;48.616;9.548;2023-04-08T08:10:32;97276.81;;;7.54;100.00
9139;BME280;4604;48.616;9.548;2023-04-08T08:12:59;97286.47;;;7.54;100.00
9139;BME280;4604;48.616;9.548;2023-04-08T08:15:25;97284.03;;;7.63;100.00
9139;BME280;4604;48.616;9.548;2023-04-08T08:17:53;97289.09;;;7.54;100.00
9139;BME280;4604;48.616;9.548;2023-04-08T08:20:20;97292.09;;;7.60;100.00
9139;BME280;4604;48.616;9.548;2023-04-08T08:22:47;97291.28;;;7.60;100.00
9139;BME280;4604;48.616;9.548;2023-04-08T08:25:13;97293.72;;;7.50;100.00
9139;BME280;4604;48.616;9.548;2023-04-08T08:27:40;97295.25;;;7.41;100.00
9139;BME280;4604;48.616;9.548;2023-04-08T08:30:08;97294.69;;;7.49;100.00
9139;BME280;4604;48.616;9.548;2023-04-08T08:32:35;97295.38;;;7.64;100.00
9139;BME280;4604;48.616;9.548;2023-04-08T08:35:03;97301.16;;;7.80;100.00
9139;BME280;4604;48.616;9.548;2023-04-08T08:37:30;97299.41;;;7.92;100.00
9139;BME280;4604;48.616;9.548;2023-04-08T08:39:56;97301.59;;;7.98;100.00
9139;BME280;4604;48.616;9.548;2023-04-08T08:42:24;97308.56;;;8.10;100.00
9139;BME280;4604;48.616;9.548;2023-04-08T08:44:51;97311.53;;;8.06;100.00
9139;BME280;4604;48.616;9.548;2023-04-08T08:47:18;97301.00;;;8.30;100.00
9139;BME280;4604;48.616;9.548;2023-04-08T08:49:44;97310.75;;;8.63;100.00
9139;BME280;4604;48.616;9.548;2023-04-08T08:52:16;97309.91;;;8.63;100.00
9139;BME280;4604;48.616;9.548;2023-04-08T08:54:43;97307.56;;;8.93;100.00
9139;BME280;4604;48.616;9.548;2023-04-08T08:57:16;97309.97;;;9.08;100.00
9139;BME280;4604;48.616;9.548;2023-04-08T08:59:45;97310.19;;;9.16;98.32
9139;BME280;4604;48.616;9.548;2023-04-08T09:02:23;97310.75;;;9.42;97.45
9139;BME280;4604;48.616;9.548;2023-04-08T09:04:55;97314.47;;;9.39;100.00
9139;BME280;4604;48.616;9.548;2023-04-08T09:07:25;97315.03;;;9.54;100.00
9139;BME280;4604;48.616;9.548;2023-04-08T09:09:53;97314.34;;;9.41;100.00
9139;BME280;4604;48.616;9.548;2023-04-08T09:12:20;97316.78;;;9.10;96.41
9139;BME280;4604;48.616;9.548;2023-04-08T09:14:47;97322.13;;;9.31;96.42
9139;BME280;4604;48.616;9.548;2023-04-08T09:17:14;97318.50;;;9.55;95.79
9139;BME280;4604;48.616;9.548;2023-04-08T09:20:03;97324.06;;;9.84;93.64
9139;BME280;4604;48.616;9.548;2023-04-08T09:22:54;97328.50;;;9.83;90.05
9139;BME280;4604;48.616;9.548;2023-04-08T09:25:22;97326.78;;;9.94;89.29
9139;BME280;4604;48.616;9.548;2023-04-08T09:27:49;97317.53;;;9.99;83.96
9139;BME280;4604;48.616;9.548;2023-04-08T09:30:17;97319.59;;;10.17;82.59
9139;BME280;4604;48.616;9.548;2023-04-08T09:32:47;97320.19;;;10.32;78.54
9139;BME280;4604;48.616;9.548;2023-04-08T09:35:16;97313.81;;;10.02;81.81
9139;BME280;4604;48.616;9.548;2023-04-08T09:37:44;97320.66;;;10.37;81.38
9139;BME280;4604;48.616;9.548;2023-04-08T09:40:10;97315.44;;;10.46;80.16
9139;BME280;4604;48.616;9.548;2023-04-08T09:42:42;97311.06;;;10.57;79.01
9139;BME280;4604;48.616;9.548;2023-04-08T09:45:11;97320.38;;;10.61;76.52
9139;BME280;4604;48.616;9.548;2023-04-08T09:47:46;97318.63;;;10.50;72.92
9139;BME280;4604;48.616;9.548;2023-04-08T09:50:15;97320.56;;;10.69;74.96
9139;BME280;4604;48.616;9.548;2023-04-08T09:52:47;97314.59;;;10.98;73.55
9139;BME280;4604;48.616;9.548;2023-04-08T09:55:21;97308.63;;;11.36;74.16
9139;BME280;4604;48.616;9.548;2023-04-08T09:57:51;97318.59;;;11.63;73.40
9139;BME280;4604;48.616;9.548;2023-04-08T10:00:24;97303.25;;;11.57;70.17
9139;BME280;4604;48.616;9.548;2023-04-08T10:02:54;97314.09;;;11.54;69.12
9139;BME280;4604;48.616;9.548;2023-04-08T10:05:23;97312.03;;;11.67;66.35
9139;BME280;4604;48.616;9.548;2023-04-08T10:07:52;97319.44;;;11.23;67.91
9139;BME280;4604;48.616;9.548;2023-04-08T10:10:19;97325.41;;;11.25;70.62
9139;BME280;4604;48.616;9.548;2023-04-08T10:12:46;97326.28;;;10.74;71.55
9139;BME280;4604;48.616;9.548;2023-04-08T10:15:24;97322.13;;;11.02;71.97
9139;BME280;4604;48.616;9.548;2023-04-08T10:17:52;97321.50;;;10.89;66.60
9139;BME280;4604;48.616;9.548;2023-04-08T10:20:40;97317.97;;;10.79;68.13
9139;BME280;4604;48.616;9.548;2023-04-08T10:23:09;97318.16;;;10.87;67.79
9139;BME280;4604;48.616;9.548;2023-04-08T10:25:38;97324.69;;;10.83;67.33
9139;BME280;4604;48.616;9.548;2023-04-08T10:28:23;97318.50;;;10.73;66.19
9139;BME280;4604;48.616;9.548;2023-04-08T10:30:51;97320.50;;;10.59;67.29
9139;BME280;4604;48.616;9.548;2023-04-08T10:33:21;97321.81;;;10.44;69.50
9139;BME280;4604;48.616;9.548;2023-04-08T10:35:51;97312.66;;;10.16;70.08
9139;BME280;4604;48.616;9.548;2023-04-08T10:38:20;97319.47;;;10.30;70.97
9139;BME280;4604;48.616;9.548;2023-04-08T10:40:48;97311.19;;;10.23;70.63
9139;BME280;4604;48.616;9.548;2023-04-08T10:43:15;97312.63;;;9.95;71.29
9139;BME280;4604;48.616;9.548;2023-04-08T10:45:43;97306.50;;;10.05;70.92
9139;BME280;4604;48.616;9.548;2023-04-08T10:48:11;97317.41;;;10.33;70.80
9139;BME280;4604;48.616;9.548;2023-04-08T10:50:38;97319.34;;;10.31;69.67
9139;BME280;4604;48.616;9.548;2023-04-08T10:53:06;97316.47;;;10.34;70.12
9139;BME280;4604;48.616;9.548;2023-04-08T10:55:34;97320.66;;;10.37;69.63
9139;BME280;4604;48.616;9.548;2023-04-08T10:58:05;97323.84;;;10.40;69.87
9139;BME280;4604;48.616;9.548;2023-04-08T11:00:33;97315.53;;;9.92;71.25
9139;BME280;4604;48.616;9.548;2023-04-08T11:03:00;97316.88;;;10.07;68.91
9139;BME280;4604;48.616;9.548;2023-04-08T11:05:26;97317.97;;;10.04;68.10
9139;BME280;4604;48.616;9.548;2023-04-08T11:07:53;97317.88;;;10.06;69.82
9139;BME280;4604;48.616;9.548;2023-04-08T11:10:20;97306.22;;;10.08;67.96
9139;BME280;4604;48.616;9.548;2023-04-08T11:12:48;97317.22;;;9.93;68.21
9139;BME280;4604;48.616;9.548;2023-04-08T11:15:16;97312.09;;;9.80;70.00
9139;BME280;4604;48.616;9.548;2023-04-08T11:17:43;97305.50;;;9.85;69.61
9139;BME280;4604;48.616;9.548;2023-04-08T11:20:10;97312.31;;;9.88;70.20
9139;BME280;4604;48.616;9.548;2023-04-08T11:22:36;97310.50;;;9.89;69.93
9139;BME280;4604;48.616;9.548;2023-04-08T11:25:06;97313.22;;;9.98;69.10
9139;BME280;4604;48.616;9.548;2023-04-08T11:27:34;97317.59;;;9.88;68.76
9139;BME280;4604;48.616;9.548;2023-04-08T11:30:03;97322.06;;;9.76;70.80
9139;BME280;4604;48.616;9.548;2023-04-08T11:32:31;97314.81;;;9.90;70.54
9139;BME280;4604;48.616;9.548;2023-04-08T11:34:58;97322.34;;;9.94;72.38
9139;BME280;4604;48.616;9.548;2023-04-08T11:37:25;97311.09;;;9.92;72.43
9139;BME280;4604;48.616;9.548;2023-04-08T11:39:54;97312.03;;;10.23;70.91
9139;BME280;4604;48.616;9.548;2023-04-08T11:42:27;97308.56;;;10.23;70.83
9139;BME280;4604;48.616;9.548;2023-04-08T11:44:54;97307.22;;;10.07;71.82
9139;BME280;4604;48.616;9.548;2023-04-08T11:47:29;97304.13;;;10.23;72.35
9139;BME280;4604;48.616;9.548;2023-04-08T11:49:58;97318.06;;;10.46;69.46
9139;BME280;4604;48.616;9.548;2023-04-08T11:52:40;97310.47;;;10.32;69.02
9139;BME280;4604;48.616;9.548;2023-04-08T11:55:08;97315.47;;;10.35;69.34
9139;BME280;4604;48.616;9.548;2023-04-08T11:57:35;97315.09;;;10.40;67.99
9139;BME280;4604;48.616;9.548;2023-04-08T12:00:02;97315.00;;;10.41;67.09
9139;BME280;4604;48.616;9.548;2023-04-08T12:02:31;97311.56;;;10.18;67.72
9139;BME280;4604;48.616;9.548;2023-04-08T12:04:58;97311.06;;;10.03;69.62
9139;BME280;4604;48.616;9.548;2023-04-08T12:07:25;97313.88;;;10.12;68.45
9139;BME280;4604;48.616;9.548;2023-04-08T12:09:52;97319.47;;;10.30;67.44
9139;BME280;4604;48.616;9.548;2023-04-08T12:12:19;97327.84;;;10.02;68.68
9139;BME280;4604;48.616;9.548;2023-04-08T12:14:47;97320.97;;;9.68;69.62
9139;BME280;4604;48.616;9.548;2023-04-08T12:17:16;97320.09;;;9.90;67.34
9139;BME280;4604;48.616;9.548;2023-04-08T12:19:47;97326.81;;;9.82;67.92
9139;BME280;4604;48.616;9.548;2023-04-08T12:22:13;97318.34;;;9.79;68.42
9139;BME280;4604;48.616;9.548;2023-04-08T12:24:40;97324.66;;;9.88;68.19
9139;BME280;4604;48.616;9.548;2023-04-08T12:27:07;97324.66;;;9.88;68.29
9139;BME280;4604;48.616;9.548;2023-04-08T12:29:34;97327.31;;;10.08;65.97
9139;BME280;4604;48.616;9.548;2023-04-08T12:32:00;97326.53;;;9.97;65.44
9139;BME280;4604;48.616;9.548;2023-04-08T12:34:28;97327.88;;;9.91;62.45
9139;BME280;4604;48.616;9.548;2023-04-08T12:36:56;97325.28;;;10.12;63.20
9139;BME280;4604;48.616;9.548;2023-04-08T12:39:23;97332.09;;;10.15;62.88
9139;BME280;4604;48.616;9.548;2023-04-08T12:41:50;97334.09;;;10.22;58.39
9139;BME280;4604;48.616;9.548;2023-04-08T12:44:17;97341.03;;;10.02;59.03
9139;BME280;4604;48.616;9.548;2023-04-08T12:46:45;97335.72;;;9.70;59.43
9139;BME280;4604;48.616;9.548;2023-04-08T12:49:15;97336.75;;;9.35;60.54
9139;BME280;4604;48.616;9.548;2023-04-08T12:51:41;97338.75;;;9.54;61.45
9139;BME280;4604;48.616;9.548;2023-04-08T12:54:09;97332.25;;;9.70;60.80
9139;BME280;4604;48.616;9.548;2023-04-08T12:56:36;97343.34;;;9.84;58.07
9139;BME280;4604;48.616;9.548;2023-04-08T12:59:03;97339.53;;;9.77;57.95
9139;BME280;4604;48.616;9.548;2023-04-08T13:01:30;97342.13;;;9.45;58.07
9139;BME280;4604;48.616;9.548;2023-04-08T13:03:57;97332.31;;;9.47;58.42
9139;BME280;4604;48.616;9.548;2023-04-08T13:06:23;97338.44;;;9.80;56.66
9139;BME280;4604;48.616;9.548;2023-04-08T13:08:50;97338.69;;;9.77;57.42
9139;BME280;4604;48.616;9.548;2023-04-08T13:11:19;97337.63;;;9.79;57.22
9139;BME280;4604;48.616;9.548;2023-04-08T13:13:45;97340.50;;;9.76;57.62
9139;BME280;4604;48.616;9.548;2023-04-08T13:16:12;97332.00;;;9.73;56.61
9139;BME280;4604;48.616;9.548;2023-04-08T13:18:39;97336.06;;;9.77;57.30
9139;BME280;4604;48.616;9.548;2023-04-08T13:21:06;97332.72;;;9.75;58.45
9139;BME280;4604;48.616;9.548;2023-04-08T13:23:33;97334.41;;;9.76;58.53
9139;BME280;4604;48.616;9.548;2023-04-08T13:26:01;97333.41;;;9.88;58.15